createdAt,value
2023-03-05T00:01:22.878Z,10.43
2023-03-05T00:03:52.404Z,10.40
2023-03-05T00:06:21.598Z,9.77
2023-03-05T00:08:49.370Z,9.00
2023-03-05T00:11:16.817Z,11.02
2023-03-05T00:13:44.158Z,11.90
2023-03-05T00:16:14.455Z,10.93
2023-03-05T00:18:42.241Z,11.73
2023-03-05T00:21:20.232Z,12.85
2023-03-05T00:23:47.566Z,13.35
2023-03-05T00:26:15.020Z,13.02
2023-03-05T00:28:42.396Z,12.73
2023-03-05T00:31:10.241Z,12.52
2023-03-05T00:33:37.382Z,12.65
2023-03-05T00:36:08.260Z,11.32
2023-03-05T00:38:35.815Z,10.48
2023-03-05T00:41:03.531Z,10.82
2023-03-05T00:43:30.767Z,10.07
2023-03-05T00:45:58.189Z,9.98
2023-03-05T00:48:25.717Z,10.27
2023-03-05T00:50:53.269Z,9.70
2023-03-05T00:53:22.191Z,9.30
2023-03-05T00:55:49.597Z,9.63
2023-03-05T00:58:16.861Z,9.23
2023-03-05T01:00:44.381Z,9.45
2023-03-05T01:03:11.555Z,10.25
2023-03-05T01:05:39.075Z,10.85
2023-03-05T01:08:06.376Z,10.85
2023-03-05T01:10:34.333Z,11.25
2023-03-05T01:13:02.084Z,10.13
2023-03-05T01:15:29.617Z,9.75
2023-03-05T01:17:56.766Z,10.00
2023-03-05T01:20:24.332Z,11.13
2023-03-05T01:22:51.649Z,11.75
2023-03-05T01:25:19.223Z,11.23
2023-03-05T01:27:47.039Z,11.30
2023-03-05T01:30:15.767Z,10.35
2023-03-05T01:32:43.428Z,12.20
2023-03-05T01:35:18.269Z,13.15
2023-03-05T01:37:45.859Z,12.55
2023-03-05T01:40:17.396Z,10.63
2023-03-05T01:42:49.163Z,13.02
2023-03-05T01:45:18.559Z,12.50
2023-03-05T01:47:45.910Z,11.32
2023-03-05T01:50:17.460Z,11.57
2023-03-05T01:52:50.396Z,12.25
2023-03-05T01:55:22.383Z,11.70
2023-03-05T01:58:14.627Z,11.40
2023-03-05T02:00:47.074Z,12.30
2023-03-05T02:03:14.945Z,14.00
2023-03-05T02:05:44.508Z,14.73
2023-03-05T02:08:15.051Z,14.18
2023-03-05T02:10:46.029Z,12.93
2023-03-05T02:13:25.718Z,13.15
2023-03-05T02:15:54.708Z,15.10
2023-03-05T02:18:23.015Z,13.50
2023-03-05T02:20:56.474Z,15.73
2023-03-05T02:23:27.087Z,15.68
2023-03-05T02:25:55.100Z,15.07
2023-03-05T02:28:37.580Z,13.63
2023-03-05T02:33:42.960Z,12.23
2023-03-05T02:36:12.072Z,11.77
2023-03-05T02:38:40.277Z,17.20
2023-03-05T02:41:07.997Z,22.50
2023-03-05T02:43:36.250Z,19.55
2023-03-05T02:46:04.656Z,26.60
2023-03-05T02:48:32.918Z,13.70
2023-03-05T02:51:02.746Z,17.00
2023-03-05T02:53:29.981Z,14.07
2023-03-05T02:55:57.652Z,15.73
2023-03-05T02:58:24.860Z,13.35
2023-03-05T03:00:52.424Z,12.90
2023-03-05T03:03:19.782Z,12.10
2023-03-05T03:05:47.440Z,13.52
2023-03-05T03:08:15.262Z,13.70
2023-03-05T03:10:42.728Z,12.10
2023-03-05T03:13:10.035Z,14.05
2023-03-05T03:15:38.040Z,14.73
2023-03-05T03:18:05.361Z,11.98
2023-03-05T03:20:34.867Z,13.48
2023-03-05T03:23:02.234Z,13.65
2023-03-05T03:25:30.447Z,13.90
2023-03-05T03:27:57.603Z,14.43
2023-03-05T03:30:25.105Z,12.65
2023-03-05T03:32:52.589Z,13.52
2023-03-05T03:35:20.273Z,12.35
2023-03-05T03:37:48.470Z,13.90
2023-03-05T03:40:16.027Z,14.45
2023-03-05T03:42:43.346Z,15.23
2023-03-05T03:45:11.255Z,14.93
2023-03-05T03:47:38.475Z,15.88
2023-03-05T03:50:06.245Z,16.00
2023-03-05T03:52:33.530Z,14.02
2023-03-05T03:55:02.122Z,16.55
2023-03-05T03:57:33.513Z,14.05
2023-03-05T04:00:01.194Z,16.60
2023-03-05T04:02:28.518Z,15.57
2023-03-05T04:04:56.049Z,14.52
2023-03-05T04:07:23.242Z,16.45
2023-03-05T04:09:50.820Z,16.77
2023-03-05T04:12:18.345Z,15.07
2023-03-05T04:14:47.798Z,15.88
2023-03-05T04:17:15.958Z,15.60
2023-03-05T04:19:43.828Z,15.13
2023-03-05T04:22:16.027Z,16.58
2023-03-05T04:24:44.409Z,15.70
2023-03-05T04:27:12.355Z,16.35
2023-03-05T04:29:39.851Z,15.35
2023-03-05T04:32:07.804Z,16.27
2023-03-05T04:34:37.489Z,15.25
2023-03-05T04:37:04.731Z,17.92
2023-03-05T04:39:32.143Z,16.70
2023-03-05T04:41:59.337Z,17.85
2023-03-05T04:44:26.751Z,18.40
2023-03-05T04:46:53.989Z,17.58
2023-03-05T04:49:21.532Z,20.15
2023-03-05T04:51:48.797Z,19.80
2023-03-05T04:54:16.204Z,18.27
2023-03-05T04:56:43.350Z,20.30
2023-03-05T04:59:11.100Z,19.40
2023-03-05T05:01:38.765Z,19.30
2023-03-05T05:04:06.372Z,20.85
2023-03-05T05:06:33.759Z,19.23
2023-03-05T05:09:01.422Z,20.77
2023-03-05T05:11:28.651Z,21.63
2023-03-05T05:13:56.134Z,21.60
2023-03-05T05:16:23.519Z,20.52
2023-03-05T05:18:51.063Z,19.65
2023-03-05T05:21:18.748Z,20.35
2023-03-05T05:23:46.350Z,20.70
2023-03-05T05:26:14.393Z,18.83
2023-03-05T05:28:43.598Z,19.92
2023-03-05T05:31:13.942Z,20.40
2023-03-05T05:33:41.634Z,20.33
2023-03-05T05:36:12.266Z,22.05
2023-03-05T05:38:39.790Z,20.08
2023-03-05T05:41:10.230Z,18.48
2023-03-05T05:43:38.231Z,18.30
2023-03-05T05:46:10.617Z,21.00
2023-03-05T05:48:38.411Z,22.50
2023-03-05T05:51:08.549Z,20.33
2023-03-05T05:53:36.530Z,19.13
2023-03-05T05:56:09.259Z,18.70
2023-03-05T05:58:38.270Z,17.48
2023-03-05T06:01:24.003Z,17.55
2023-03-05T06:03:52.497Z,17.23
2023-03-05T06:06:22.359Z,18.77
2023-03-05T06:08:50.327Z,17.67
2023-03-05T06:11:19.577Z,17.63
2023-03-05T06:13:47.851Z,16.02
2023-03-05T06:16:19.234Z,16.73
2023-03-05T06:18:46.836Z,16.97
2023-03-05T06:21:16.713Z,17.83
2023-03-05T06:23:44.947Z,16.67
2023-03-05T06:26:15.201Z,18.15
2023-03-05T06:28:42.836Z,19.52
2023-03-05T06:31:13.417Z,17.77
2023-03-05T06:33:41.435Z,19.45
2023-03-05T06:36:11.277Z,18.55
2023-03-05T06:38:39.597Z,16.25
2023-03-05T06:41:11.522Z,18.60
2023-03-05T06:43:41.720Z,16.20
2023-03-05T06:46:13.052Z,16.13
2023-03-05T06:48:40.888Z,15.68
2023-03-05T06:51:20.003Z,16.67
2023-03-05T06:53:49.505Z,15.15
2023-03-05T06:56:18.262Z,16.33
2023-03-05T06:58:47.711Z,16.30
2023-03-05T07:01:15.692Z,15.23
2023-03-05T07:03:44.060Z,14.43
2023-03-05T07:06:13.901Z,14.18
2023-03-05T07:08:41.593Z,15.95
2023-03-05T07:11:14.939Z,14.77
2023-03-05T07:13:43.461Z,13.48
2023-03-05T07:16:15.433Z,13.88
2023-03-05T07:18:43.802Z,12.75
2023-03-05T07:21:15.126Z,12.93
2023-03-05T07:23:42.631Z,12.77
2023-03-05T07:26:11.522Z,14.70
2023-03-05T07:28:39.436Z,12.30
2023-03-05T07:31:12.989Z,12.07
2023-03-05T07:33:40.548Z,12.77
2023-03-05T07:36:09.431Z,14.15
2023-03-05T07:38:37.658Z,12.40
2023-03-05T07:41:09.796Z,12.00
2023-03-05T07:43:37.779Z,12.45
2023-03-05T07:46:07.954Z,12.52
2023-03-05T07:48:36.288Z,12.32
2023-03-05T07:51:06.010Z,12.85
2023-03-05T07:53:33.575Z,13.30
2023-03-05T07:56:00.778Z,12.32
2023-03-05T07:58:28.333Z,11.32
2023-03-05T08:00:55.568Z,11.57
2023-03-05T08:03:23.109Z,12.63
2023-03-05T08:05:50.297Z,13.10
2023-03-05T08:08:18.725Z,11.13
2023-03-05T08:10:46.343Z,11.80
2023-03-05T08:13:13.994Z,10.65
2023-03-05T08:15:41.372Z,13.30
2023-03-05T08:18:08.858Z,12.02
2023-03-05T08:20:36.655Z,12.18
2023-03-05T08:23:04.701Z,12.82
2023-03-05T08:25:32.125Z,11.10
2023-03-05T08:28:00.240Z,10.48
2023-03-05T08:30:27.763Z,11.05
2023-03-05T08:32:55.831Z,12.30
2023-03-05T08:35:23.416Z,10.80
2023-03-05T08:37:51.090Z,10.00
2023-03-05T08:40:18.454Z,10.20
2023-03-05T08:42:46.292Z,11.60
2023-03-05T08:45:13.782Z,10.95
2023-03-05T08:47:41.261Z,10.88
2023-03-05T08:50:09.221Z,11.85
2023-03-05T08:52:36.709Z,13.02
2023-03-05T08:55:04.171Z,13.68
2023-03-05T08:57:31.648Z,12.45
2023-03-05T08:59:58.860Z,11.98
2023-03-05T09:02:26.285Z,12.07
2023-03-05T09:04:53.582Z,11.73
2023-03-05T09:07:21.397Z,12.93
2023-03-05T09:09:48.560Z,11.93
2023-03-05T09:12:16.087Z,11.90
2023-03-05T09:14:43.378Z,13.13
2023-03-05T09:17:10.944Z,12.88
2023-03-05T09:19:38.388Z,13.27
2023-03-05T09:22:06.136Z,12.88
2023-03-05T09:24:33.345Z,10.40
2023-03-05T09:27:01.058Z,11.32
2023-03-05T09:29:30.901Z,11.60
2023-03-05T09:31:58.590Z,10.73
2023-03-05T09:34:25.921Z,9.90
2023-03-05T09:36:53.375Z,10.85
2023-03-05T09:39:20.555Z,9.90
2023-03-05T09:42:27.074Z,8.65
2023-03-05T09:45:21.385Z,8.95
2023-03-05T09:47:53.823Z,9.50
2023-03-05T09:50:44.293Z,10.43
2023-03-05T09:53:23.515Z,9.45
2023-03-05T09:55:56.341Z,9.45
2023-03-05T09:58:46.367Z,8.38
2023-03-05T10:01:16.984Z,9.48
2023-03-05T10:04:16.162Z,48.08
2023-03-05T10:06:53.423Z,218.10
2023-03-05T10:09:47.441Z,91.68
2023-03-05T10:12:42.263Z,32.53
2023-03-05T10:15:26.967Z,41.38
2023-03-05T10:17:59.982Z,45.88
2023-03-05T10:20:40.395Z,14.13
2023-03-05T10:23:29.491Z,39.22
2023-03-05T10:26:21.812Z,30.95
2023-03-05T10:28:58.790Z,81.53
2023-03-05T10:31:47.653Z,68.00
2023-03-05T10:34:27.946Z,49.40
2023-03-05T10:37:10.638Z,84.45
2023-03-05T10:39:43.427Z,17.58
2023-03-05T10:42:41.247Z,57.15
2023-03-05T10:45:20.169Z,54.15
2023-03-05T10:48:07.545Z,22.25
2023-03-05T10:50:40.289Z,14.57
2023-03-05T10:53:15.625Z,20.60
2023-03-05T10:55:42.914Z,22.48
2023-03-05T10:58:15.411Z,15.38
2023-03-05T11:01:12.341Z,23.70
2023-03-05T11:04:03.738Z,16.80
2023-03-05T11:06:35.647Z,19.63
2023-03-05T11:09:18.561Z,21.85
2023-03-05T11:14:33.141Z,16.55
2023-03-05T11:17:02.979Z,14.60
2023-03-05T11:19:35.442Z,14.77
2023-03-05T11:22:19.003Z,19.73
2023-03-05T11:25:21.290Z,16.60
2023-03-05T11:27:55.709Z,23.52
2023-03-05T11:30:29.091Z,15.50
2023-03-05T11:33:22.703Z,19.98
2023-03-05T11:35:52.958Z,16.63
2023-03-05T11:38:27.945Z,15.45
2023-03-05T11:40:56.883Z,19.20
2023-03-05T11:43:25.497Z,20.10
2023-03-05T11:46:00.549Z,16.17
2023-03-05T11:48:38.420Z,19.10
2023-03-05T11:51:21.189Z,19.50
2023-03-05T11:53:53.900Z,19.52
2023-03-05T11:56:30.067Z,18.02
2023-03-05T11:59:14.774Z,19.55
2023-03-05T12:01:51.443Z,20.48
2023-03-05T12:04:20.290Z,21.88
2023-03-05T12:06:57.888Z,23.00
2023-03-05T12:09:37.855Z,23.83
2023-03-05T12:12:21.702Z,25.05
2023-03-05T12:15:03.620Z,23.50
2023-03-05T12:17:44.599Z,27.23
2023-03-05T12:20:32.786Z,22.35
2023-03-05T12:23:00.504Z,18.80
2023-03-05T12:25:44.456Z,20.73
2023-03-05T12:28:17.371Z,34.17
2023-03-05T12:30:47.514Z,21.60
2023-03-05T12:33:53.693Z,20.10
2023-03-05T12:36:20.983Z,17.30
2023-03-05T12:38:52.373Z,20.30
2023-03-05T12:41:27.880Z,21.75
2023-03-05T12:44:07.538Z,22.25
2023-03-05T12:46:44.987Z,21.40
2023-03-05T12:49:20.233Z,19.50
2023-03-05T12:51:49.374Z,19.17
2023-03-05T12:54:31.482Z,19.73
2023-03-05T12:57:02.311Z,22.38
2023-03-05T12:59:58.702Z,18.52
2023-03-05T13:02:36.574Z,19.88
2023-03-05T13:05:27.197Z,20.63
2023-03-05T13:08:15.794Z,22.00
2023-03-05T13:10:50.285Z,19.35
2023-03-05T13:13:17.478Z,26.10
2023-03-05T13:15:50.352Z,20.33
2023-03-05T13:18:27.480Z,21.52
2023-03-05T13:21:14.706Z,20.60
2023-03-05T13:23:58.003Z,29.63
2023-03-05T13:26:41.770Z,19.90
2023-03-05T13:29:16.497Z,21.42
2023-03-05T13:31:48.774Z,17.02
2023-03-05T13:34:22.139Z,17.45
2023-03-05T13:36:52.647Z,18.50
2023-03-05T13:39:28.193Z,16.52
2023-03-05T13:42:00.791Z,16.08
2023-03-05T13:44:29.592Z,15.20
2023-03-05T13:47:20.430Z,13.73
2023-03-05T13:49:54.997Z,13.02
2023-03-05T13:52:27.985Z,15.60
2023-03-05T13:54:55.808Z,12.30
2023-03-05T13:57:46.720Z,11.23
2023-03-05T14:00:33.909Z,13.10
2023-03-05T14:03:20.928Z,11.10
2023-03-05T14:05:49.894Z,11.45
2023-03-05T14:08:25.499Z,13.27
2023-03-05T14:10:57.546Z,10.80
2023-03-05T14:13:27.807Z,10.20
2023-03-05T14:16:25.571Z,10.77
2023-03-05T14:18:58.929Z,12.10
2023-03-05T14:21:41.815Z,11.20
2023-03-05T14:24:21.474Z,10.32
2023-03-05T14:26:56.517Z,11.55
2023-03-05T14:29:28.796Z,14.52
2023-03-05T14:32:02.132Z,13.80
2023-03-05T14:34:37.074Z,18.15
2023-03-05T14:37:07.754Z,16.40
2023-03-05T14:39:41.378Z,13.63
2023-03-05T14:42:27.427Z,18.70
2023-03-05T14:44:56.428Z,20.23
2023-03-05T14:47:25.877Z,30.55
2023-03-05T14:49:53.684Z,15.45
2023-03-05T14:52:23.854Z,16.60
2023-03-05T14:54:52.508Z,14.02
2023-03-05T14:57:24.308Z,32.60
2023-03-05T14:59:51.816Z,12.77
2023-03-05T15:02:22.673Z,14.60
2023-03-05T15:04:50.318Z,21.45
2023-03-05T15:07:31.785Z,19.90
2023-03-05T15:10:00.074Z,22.23
2023-03-05T15:12:27.273Z,27.38
2023-03-05T15:14:56.637Z,21.38
2023-03-05T15:17:34.382Z,20.27
2023-03-05T15:20:07.873Z,19.90
2023-03-05T15:22:35.197Z,22.77
2023-03-05T15:25:03.173Z,19.88
2023-03-05T15:27:30.558Z,23.25
2023-03-05T15:29:59.568Z,19.92
2023-03-05T15:32:29.173Z,24.38
2023-03-05T15:34:57.267Z,26.27
2023-03-05T15:37:26.011Z,23.35
2023-03-05T15:39:53.654Z,40.20
2023-03-05T15:42:20.873Z,25.50
2023-03-05T15:44:48.435Z,25.17
2023-03-05T15:47:15.713Z,36.47
2023-03-05T15:49:43.189Z,25.30
2023-03-05T15:52:10.455Z,24.75
2023-03-05T15:54:38.001Z,23.35
2023-03-05T15:57:09.628Z,25.15
2023-03-05T15:59:37.660Z,24.30
2023-03-05T16:02:05.035Z,32.92
2023-03-05T16:04:32.959Z,30.52
2023-03-05T16:07:03.557Z,21.90
2023-03-05T16:09:35.945Z,26.40
2023-03-05T16:12:06.804Z,27.83
2023-03-05T16:14:34.360Z,33.08
2023-03-05T16:17:03.565Z,27.35
2023-03-05T16:19:34.976Z,34.42
2023-03-05T16:22:02.378Z,36.13
2023-03-05T16:24:29.802Z,41.53
2023-03-05T16:26:57.077Z,37.33
2023-03-05T16:29:26.122Z,38.35
2023-03-05T16:31:53.414Z,40.40
2023-03-05T16:34:21.032Z,34.42
2023-03-05T16:36:52.526Z,39.35
2023-03-05T16:39:21.199Z,34.42
2023-03-05T16:41:50.129Z,32.15
2023-03-05T16:44:17.540Z,27.42
2023-03-05T16:46:49.136Z,26.77
2023-03-05T16:49:17.091Z,27.73
2023-03-05T16:51:44.463Z,29.40
2023-03-05T16:54:12.224Z,28.83
2023-03-05T16:56:39.516Z,29.00
2023-03-05T16:59:07.351Z,32.65
2023-03-05T17:01:34.727Z,30.67
2023-03-05T17:04:02.606Z,35.42
2023-03-05T17:06:31.669Z,39.95
2023-03-05T17:09:00.130Z,41.70
2023-03-05T17:11:27.513Z,43.35
2023-03-05T17:13:55.052Z,41.92
2023-03-05T17:16:22.851Z,41.08
2023-03-05T17:18:50.503Z,42.33
2023-03-05T17:21:17.773Z,43.72
2023-03-05T17:23:45.342Z,44.40
2023-03-05T17:26:17.883Z,52.92
2023-03-05T17:28:46.006Z,50.33
2023-03-05T17:31:14.867Z,51.10
2023-03-05T17:33:43.148Z,61.03
2023-03-05T17:36:16.118Z,54.22
2023-03-05T17:38:43.893Z,50.10
2023-03-05T17:41:11.353Z,45.85
2023-03-05T17:43:38.974Z,42.28
2023-03-05T17:46:08.174Z,44.42
2023-03-05T17:48:38.874Z,52.05
2023-03-05T17:51:08.059Z,60.92
2023-03-05T17:53:36.139Z,47.70
2023-03-05T17:56:07.962Z,47.88
2023-03-05T17:58:36.280Z,50.03
2023-03-05T18:01:04.599Z,47.15
2023-03-05T18:03:34.305Z,45.92
2023-03-05T18:06:01.860Z,48.55
2023-03-05T18:08:29.369Z,45.13
2023-03-05T18:10:56.656Z,45.35
2023-03-05T18:13:24.419Z,40.97
2023-03-05T18:15:51.759Z,49.33
2023-03-05T18:18:19.327Z,50.58
2023-03-05T18:20:48.670Z,59.42
2023-03-05T18:23:16.556Z,53.97
2023-03-05T18:25:44.988Z,44.78
2023-03-05T18:28:14.219Z,51.00
2023-03-05T18:30:43.322Z,52.50
2023-03-05T18:33:38.881Z,47.80
2023-03-05T18:36:06.722Z,49.08
2023-03-05T18:38:35.052Z,70.55
2023-03-05T18:41:03.452Z,44.42
2023-03-05T18:43:31.226Z,49.15
2023-03-05T18:45:58.817Z,64.75
2023-03-05T18:48:26.826Z,99.15
2023-03-05T18:50:54.499Z,65.90
2023-03-05T18:53:22.659Z,45.03
2023-03-05T18:55:51.645Z,41.15
2023-03-05T18:58:19.406Z,39.65
2023-03-05T19:00:48.027Z,38.33
2023-03-05T19:03:18.730Z,39.00
2023-03-05T19:05:47.023Z,38.28
2023-03-05T19:08:14.524Z,42.30
2023-03-05T19:10:41.731Z,42.92
2023-03-05T19:13:40.854Z,41.58
2023-03-05T19:16:08.340Z,39.47
2023-03-05T19:19:16.880Z,40.90
2023-03-05T19:21:47.166Z,40.30
2023-03-05T19:24:15.546Z,41.22
2023-03-05T19:26:43.866Z,38.88
2023-03-05T19:29:11.890Z,41.97
2023-03-05T19:31:39.536Z,42.95
2023-03-05T19:34:08.289Z,43.17
2023-03-05T19:36:36.059Z,41.05
2023-03-05T19:39:05.773Z,39.80
2023-03-05T19:41:33.817Z,41.50
2023-03-05T19:44:01.415Z,36.75
2023-03-05T19:46:28.723Z,36.88
2023-03-05T19:48:56.318Z,38.20
2023-03-05T19:51:25.799Z,38.17
2023-03-05T19:53:53.821Z,34.47
2023-03-05T19:56:21.043Z,37.15
2023-03-05T19:58:49.173Z,37.65
2023-03-05T20:01:19.740Z,37.33
2023-03-05T20:03:49.253Z,38.90
2023-03-05T20:06:16.848Z,39.15
2023-03-05T20:08:44.825Z,39.75
2023-03-05T20:11:13.473Z,40.40
2023-03-05T20:13:41.747Z,40.70
2023-03-05T20:16:29.781Z,43.25
2023-03-05T20:18:58.498Z,41.97
2023-03-05T20:21:29.090Z,41.33
2023-03-05T20:23:59.120Z,42.58
2023-03-05T20:26:27.331Z,43.67
2023-03-05T20:28:56.420Z,42.38
2023-03-05T20:31:25.453Z,42.03
2023-03-05T20:33:53.590Z,44.67
2023-03-05T20:36:21.012Z,47.05
2023-03-05T20:38:48.567Z,45.55
2023-03-05T20:41:19.250Z,45.63
2023-03-05T20:43:49.104Z,47.22
2023-03-05T20:46:21.899Z,48.40
2023-03-05T20:48:52.094Z,49.00
2023-03-05T20:51:22.813Z,48.58
2023-03-05T20:53:54.053Z,52.30
2023-03-05T20:56:21.318Z,48.42
2023-03-05T20:58:48.795Z,49.03
2023-03-05T21:01:16.006Z,45.30
2023-03-05T21:03:43.461Z,46.75
2023-03-05T21:06:10.738Z,47.63
2023-03-05T21:08:38.282Z,44.17
2023-03-05T21:11:07.852Z,47.17
2023-03-05T21:13:35.941Z,47.33
2023-03-05T21:16:13.497Z,48.80
2023-03-05T21:18:41.019Z,44.08
2023-03-05T21:21:08.464Z,40.38
2023-03-05T21:23:36.106Z,40.25
2023-03-05T21:26:04.187Z,39.97
2023-03-05T21:28:32.031Z,39.17
2023-03-05T21:31:07.796Z,44.33
2023-03-05T21:33:36.052Z,43.13
2023-03-05T21:36:03.882Z,44.17
2023-03-05T21:38:33.938Z,43.67
2023-03-05T21:41:02.089Z,42.63
2023-03-05T21:43:31.224Z,78.85
2023-03-05T21:46:00.839Z,95.00
2023-03-05T21:48:28.501Z,149.48
2023-03-05T21:50:56.170Z,125.80
2023-03-05T21:53:23.829Z,112.82
2023-03-05T21:56:10.258Z,58.13
2023-03-05T21:58:42.880Z,57.45
2023-03-05T22:01:14.320Z,51.88
2023-03-05T22:03:43.231Z,45.63
2023-03-05T22:06:14.900Z,51.15
2023-03-05T22:08:42.829Z,52.70
2023-03-05T22:11:11.721Z,53.05
2023-03-05T22:13:39.727Z,49.42
2023-03-05T22:16:09.317Z,43.65
2023-03-05T22:18:36.816Z,42.00
2023-03-05T22:21:04.494Z,42.15
2023-03-05T22:23:36.774Z,39.10
2023-03-05T22:26:07.366Z,39.80
2023-03-05T22:28:35.994Z,36.10
2023-03-05T22:31:03.406Z,44.38
2023-03-05T22:33:31.606Z,48.95
2023-03-05T22:35:58.898Z,87.00
2023-03-05T22:38:26.435Z,48.13
2023-03-05T22:40:53.773Z,50.72
2023-03-05T22:43:21.669Z,57.15
2023-03-05T22:45:49.481Z,60.17
2023-03-05T22:48:17.139Z,56.47
2023-03-05T22:50:44.514Z,86.43
2023-03-05T22:53:12.575Z,69.07
2023-03-05T22:55:41.811Z,53.55
2023-03-05T22:58:09.700Z,88.85
2023-03-05T23:00:37.368Z,87.95
2023-03-05T23:03:06.742Z,107.70
2023-03-05T23:05:35.061Z,90.10
2023-03-05T23:08:02.652Z,76.50
2023-03-05T23:10:29.920Z,97.30
2023-03-05T23:12:59.613Z,75.88
2023-03-05T23:15:29.743Z,72.03
2023-03-05T23:17:57.402Z,66.00
2023-03-05T23:20:27.183Z,66.68
2023-03-05T23:22:56.212Z,64.78
2023-03-05T23:25:26.882Z,63.17
2023-03-05T23:27:55.143Z,58.78
2023-03-05T23:30:30.479Z,63.53
2023-03-05T23:33:08.416Z,59.20
2023-03-05T23:35:38.566Z,55.50
2023-03-05T23:38:12.543Z,57.92
2023-03-05T23:40:45.685Z,51.85
2023-03-05T23:43:14.112Z,53.50
2023-03-05T23:45:43.165Z,48.75
2023-03-05T23:48:11.223Z,50.60
2023-03-05T23:50:43.393Z,47.17
2023-03-05T23:55:42.866Z,43.50
2023-03-05T23:58:11.016Z,46.05
